Time;durP1;ratioP1;P1;durP2;ratioP2;P2;SDS_P1;SDS_P2;PMS_P1;PMS_P2;Temp;Humidity;BMP_temperature;BMP_pressure;BME280_temperature;BME280_humidity;BME280_pressure;Samples;Min_cycle;Max_cycle;Signal;HPM_P1;HPM_P2
2023/12/24 00:01:17;;;;;;;6.68;1.90;;;;;;;14.07;55.56;100753.16;4958007;28;98126;-73
2023/12/24 00:03:47;;;;;;;9.05;1.80;;;;;;;14.08;55.71;100786.41;4960803;28;97997;-74
2023/12/24 00:06:13;;;;;;;4.10;1.95;;;;;;;14.10;55.84;100762.81;4942916;28;98062;-74
2023/12/24 00:08:41;;;;;;;6.57;1.80;;;;;;;14.10;55.85;100763.69;4962199;28;97902;-74
2023/12/24 00:11:07;;;;;;;5.03;1.67;;;;;;;14.11;55.73;100769.94;4946997;28;98277;-73
2023/12/24 00:13:34;;;;;;;7.93;2.15;;;;;;;14.11;55.57;100769.94;4959887;28;97223;-74
2023/12/24 00:16:01;;;;;;;5.72;1.38;;;;;;;14.12;55.93;100767.13;4944138;28;98146;-73
2023/12/24 00:18:28;;;;;;;5.40;1.73;;;;;;;14.12;55.78;100767.13;4960187;28;101151;-74
2023/12/24 00:20:55;;;;;;;5.53;1.40;;;;;;;14.13;55.60;100747.25;4962877;28;97016;-75
2023/12/24 00:23:22;;;;;;;6.10;1.80;;;;;;;14.14;55.67;100726.50;4960478;28;97346;-74
2023/12/24 00:25:49;;;;;;;6.00;1.42;;;;;;;14.14;55.42;100726.50;4963403;28;98078;-74
2023/12/24 00:28:16;;;;;;;5.95;1.40;;;;;;;14.14;55.24;100711.13;4961644;28;99551;-74
2023/12/24 00:30:44;;;;;;;5.03;1.45;;;;;;;14.14;55.44;100700.34;4952262;28;96899;-74
2023/12/24 00:33:10;;;;;;;7.00;2.13;;;;;;;14.15;55.42;100695.78;4992541;28;97579;-74
2023/12/24 00:35:38;;;;;;;6.43;1.55;;;;;;;14.14;55.47;100685.97;4963584;28;98327;-74
2023/12/24 00:38:05;;;;;;;7.57;1.70;;;;;;;14.15;55.38;100685.00;4962945;28;97607;-74
2023/12/24 00:40:32;;;;;;;5.95;1.40;;;;;;;14.15;55.23;100701.19;4965271;28;97043;-74
2023/12/24 00:42:58;;;;;;;6.63;1.80;;;;;;;14.14;55.18;100661.66;4963974;28;97513;-74
2023/12/24 00:45:25;;;;;;;3.88;1.58;;;;;;;14.13;55.58;100668.06;4964070;28;97926;-74
2023/12/24 00:47:52;;;;;;;6.82;1.50;;;;;;;14.13;55.17;100674.31;4964760;28;100178;-74
2023/12/24 00:50:19;;;;;;;6.43;1.52;;;;;;;14.13;55.18;100649.16;4964223;28;97379;-75
2023/12/24 00:52:46;;;;;;;4.53;1.35;;;;;;;14.12;55.41;100663.63;4954316;28;97551;-74
2023/12/24 00:55:15;;;;;;;4.60;1.27;;;;;;;14.12;55.34;100653.72;4963023;28;97702;-74
2023/12/24 00:57:42;;;;;;;6.47;1.85;;;;;;;14.13;54.95;100657.25;4961863;28;97620;-74
2023/12/24 01:00:09;;;;;;;3.33;1.17;;;;;;;14.11;55.18;100651.97;4987449;28;96873;-74
2023/12/24 01:02:36;;;;;;;6.60;1.23;;;;;;;14.12;55.24;100658.22;4964747;28;97334;-74
2023/12/24 01:05:04;;;;;;;7.03;1.30;;;;;;;14.10;55.06;100652.97;4965640;28;97591;-74
2023/12/24 01:07:32;;;;;;;5.10;1.48;;;;;;;14.12;55.30;100656.41;4995434;28;98080;-75
2023/12/24 01:09:59;;;;;;;4.90;1.30;;;;;;;14.11;55.23;100662.78;4966445;28;98011;-75
2023/12/24 01:12:26;;;;;;;6.00;1.50;;;;;;;14.11;55.31;100651.09;4965588;28;97647;-74
2023/12/24 01:14:52;;;;;;;3.95;1.45;;;;;;;14.09;55.11;100659.34;4964221;28;97644;-74
2023/12/24 01:17:20;;;;;;;2.95;1.55;;;;;;;14.08;55.01;100676.53;4965528;28;98138;-74
2023/12/24 01:19:47;;;;;;;6.82;1.30;;;;;;;14.06;55.10;100656.91;4963698;28;97626;-74
2023/12/24 01:22:14;;;;;;;5.72;1.58;;;;;;;14.04;55.07;100656.19;4954887;28;97237;-75
2023/12/24 01:24:40;;;;;;;5.78;1.90;;;;;;;14.03;55.09;100659.91;4962542;28;100367;-74
2023/12/24 01:27:07;;;;;;;5.43;1.52;;;;;;;14.02;55.12;100666.28;4954400;28;97921;-74
2023/12/24 01:29:34;;;;;;;4.40;1.77;;;;;;;13.99;55.28;100669.25;4986516;28;97159;-74
2023/12/24 01:32:01;;;;;;;5.53;2.30;;;;;;;13.96;55.07;100666.81;4962348;28;97239;-74
2023/12/24 01:34:27;;;;;;;5.18;2.28;;;;;;;13.94;55.16;100666.97;4975917;28;99809;-75
2023/12/24 01:36:54;;;;;;;5.90;1.63;;;;;;;13.92;55.67;100660.00;4963622;28;98105;-74
2023/12/24 01:39:21;;;;;;;6.05;2.05;;;;;;;13.90;55.44;100653.88;4961637;28;97234;-74
2023/12/24 01:41:48;;;;;;;5.00;2.80;;;;;;;13.87;55.27;100655.00;4960138;28;96939;-74
2023/12/24 01:44:14;;;;;;;7.75;2.72;;;;;;;13.84;55.67;100663.34;4947000;28;100333;-75
2023/12/24 01:46:42;;;;;;;6.53;1.73;;;;;;;13.80;55.73;100656.53;4960667;28;97822;-75
2023/12/24 01:49:13;;;;;;;6.60;2.30;;;;;;;13.77;55.63;100651.38;4996457;28;97060;-75
2023/12/24 01:51:40;;;;;;;4.65;1.90;;;;;;;13.74;55.79;100648.09;4963679;28;96962;-74
2023/12/24 01:54:07;;;;;;;6.38;2.40;;;;;;;13.71;55.84;100646.53;4963902;28;98231;-74
2023/12/24 01:56:44;;;;;;;6.75;2.30;;;;;;;13.68;56.09;100644.09;4965017;28;97706;-74
2023/12/24 01:59:13;;;;;;;7.75;2.40;;;;;;;13.65;56.24;100642.53;4996761;28;97454;-75
2023/12/24 02:01:39;;;;;;;7.25;2.53;;;;;;;13.62;56.20;100637.41;4962249;28;97307;-75
2023/12/24 02:04:07;;;;;;;8.30;2.17;;;;;;;13.59;56.31;100645.75;4964531;28;97671;-76
2023/12/24 02:06:34;;;;;;;8.45;2.75;;;;;;;13.57;56.47;100641.47;4974835;28;98553;-75
2023/12/24 02:09:01;;;;;;;6.75;2.20;;;;;;;13.55;56.66;100638.06;4995874;28;97164;-74
2023/12/24 02:11:27;;;;;;;7.70;2.28;;;;;;;13.52;56.46;100623.00;4965540;28;96948;-76
2023/12/24 02:13:54;;;;;;;8.25;3.80;;;;;;;13.52;56.49;100638.31;4962062;28;99848;-76
2023/12/24 02:16:24;;;;;;;5.13;1.80;;;;;;;13.51;57.00;100623.97;4962931;28;99935;-75
2023/12/24 02:18:52;;;;;;;9.00;2.38;;;;;;;13.48;56.72;100616.16;4963956;28;97204;-74
2023/12/24 02:21:19;;;;;;;7.22;2.15;;;;;;;13.48;57.00;100616.16;4962158;28;97091;-76
2023/12/24 02:23:45;;;;;;;4.35;2.22;;;;;;;13.48;57.11;100602.66;4963793;28;100405;-77
2023/12/24 02:26:37;;;;;;;8.20;2.55;;;;;;;13.46;57.05;100611.88;4967655;28;99753;-74
2023/12/24 02:29:18;;;;;;;11.00;3.05;;;;;;;13.44;57.17;100601.22;4963511;28;97233;-75
2023/12/24 02:31:48;;;;;;;9.00;2.65;;;;;;;13.45;57.13;100608.31;4962731;28;96953;-76
2023/12/24 02:34:18;;;;;;;7.45;3.15;;;;;;;13.44;57.18;100590.44;4959236;28;97669;-74
2023/12/24 02:36:47;;;;;;;9.70;3.22;;;;;;;13.44;57.28;100581.47;4962636;28;97632;-75
2023/12/24 02:39:14;;;;;;;10.05;3.88;;;;;;;13.45;57.19;100583.19;4962528;28;97172;-75
2023/12/24 02:41:42;;;;;;;7.57;3.20;;;;;;;13.44;57.30;100573.41;4960670;28;96990;-75
2023/12/24 02:44:10;;;;;;;5.88;3.28;;;;;;;13.45;57.70;100572.41;4965571;28;100448;-75
2023/12/24 02:46:37;;;;;;;7.18;3.50;;;;;;;13.46;57.51;100577.66;4960778;28;99076;-77
2023/12/24 02:49:04;;;;;;;11.15;3.95;;;;;;;13.48;57.95;100566.75;4962492;28;97023;-74
2023/12/24 02:51:30;;;;;;;9.20;4.72;;;;;;;13.48;58.00;100564.91;4945300;28;97356;-73
2023/12/24 02:53:57;;;;;;;7.63;3.90;;;;;;;13.48;58.14;100564.91;4960565;28;97738;-75
2023/12/24 02:56:24;;;;;;;11.30;4.38;;;;;;;13.49;58.03;100568.44;4985127;28;100078;-74
2023/12/24 02:58:51;;;;;;;8.73;4.32;;;;;;;13.50;58.06;100575.56;4962009;28;97124;-75
2023/12/24 03:01:18;;;;;;;6.50;3.95;;;;;;;13.50;58.30;100565.63;4960886;28;97048;-73
2023/12/24 03:03:45;;;;;;;6.70;4.25;;;;;;;13.51;58.53;100561.06;4961020;28;99806;-75
2023/12/24 03:06:12;;;;;;;11.25;4.95;;;;;;;13.52;58.42;100546.59;4962697;28;97543;-74
2023/12/24 03:08:39;;;;;;;8.45;4.20;;;;;;;13.54;58.42;100552.72;4961732;28;97006;-75
2023/12/24 03:11:06;;;;;;;11.00;4.25;;;;;;;13.55;58.54;100568.75;4983683;28;97369;-76
2023/12/24 03:13:32;;;;;;;6.78;4.07;;;;;;;13.55;58.73;100557.97;4958005;28;99669;-76
2023/12/24 03:15:59;;;;;;;11.15;4.10;;;;;;;13.56;58.51;100559.69;4966180;28;98379;-74
2023/12/24 03:18:26;;;;;;;6.38;3.63;;;;;;;13.57;58.54;100544.34;4965775;28;97157;-73
2023/12/24 03:20:53;;;;;;;4.72;3.28;;;;;;;13.57;58.68;100544.34;4962046;28;97328;-76
2023/12/24 03:23:19;;;;;;;7.10;3.80;;;;;;;13.58;58.56;100546.06;4959426;28;97989;-74
2023/12/24 03:25:46;;;;;;;5.97;3.17;;;;;;;13.58;58.58;100535.25;4981401;28;97503;-75
2023/12/24 03:28:13;;;;;;;6.03;3.70;;;;;;;13.59;58.98;100540.53;4962657;28;97106;-74
2023/12/24 03:30:40;;;;;;;5.35;3.17;;;;;;;13.60;58.80;100530.59;4975560;28;97385;-74
2023/12/24 03:33:06;;;;;;;7.20;3.00;;;;;;;13.61;58.99;100521.50;4962516;28;97844;-75
2023/12/24 03:35:34;;;;;;;6.68;3.35;;;;;;;13.62;59.19;100515.13;4971376;28;100290;-76
2023/12/24 03:38:01;;;;;;;8.93;3.50;;;;;;;13.64;59.18;100507.72;4954838;28;99544;-73
2023/12/24 03:40:28;;;;;;;6.55;2.92;;;;;;;13.65;59.45;100502.19;4963835;28;96794;-75
2023/12/24 03:42:55;;;;;;;4.25;2.58;;;;;;;13.67;59.05;100507.47;4962106;28;99885;-75
2023/12/24 03:45:22;;;;;;;4.68;2.65;;;;;;;13.68;59.46;100515.41;4962333;28;97783;-76
2023/12/24 03:47:49;;;;;;;3.97;2.53;;;;;;;13.69;59.29;100513.56;4978392;28;97179;-75
2023/12/24 03:50:16;;;;;;;3.45;1.90;;;;;;;13.69;59.36;100521.66;4961742;28;97230;-74
2023/12/24 03:52:44;;;;;;;3.53;1.92;;;;;;;13.70;59.15;100503.63;4964582;28;98110;-75
2023/12/24 03:55:11;;;;;;;2.67;1.80;;;;;;;13.70;59.39;100504.50;4961992;28;100320;-73
2023/12/24 03:57:38;;;;;;;3.25;1.80;;;;;;;13.72;59.46;100491.72;4962378;28;96938;-74
2023/12/24 04:00:05;;;;;;;3.33;1.50;;;;;;;13.72;59.62;100497.09;4961255;28;97194;-73
2023/12/24 04:02:34;;;;;;;3.42;1.80;;;;;;;13.73;59.45;100498.81;4977341;28;98572;-73
2023/12/24 04:05:01;;;;;;;1.85;1.58;;;;;;;13.75;59.74;100493.28;4962762;28;100128;-72
2023/12/24 04:07:28;;;;;;;3.65;1.38;;;;;;;13.77;59.93;100497.53;4973668;28;97885;-73
2023/12/24 04:09:55;;;;;;;1.10;0.90;;;;;;;13.78;59.97;100504.66;4966640;28;96945;-73
2023/12/24 04:12:22;;;;;;;1.33;0.80;;;;;;;13.78;59.89;100512.75;4997027;28;100444;-72
2023/12/24 04:14:49;;;;;;;1.65;0.80;;;;;;;13.80;60.24;100491.88;4966112;28;97688;-74
2023/12/24 04:17:16;;;;;;;2.25;0.82;;;;;;;13.82;60.16;100489.03;4966684;28;97459;-73
2023/12/24 04:19:42;;;;;;;1.77;0.60;;;;;;;13.82;60.13;100499.84;4966718;28;97221;-73
2023/12/24 04:22:09;;;;;;;1.20;0.77;;;;;;;13.82;60.20;100489.88;4995155;28;97537;-73
2023/12/24 04:24:35;;;;;;;0.80;0.70;;;;;;;13.83;60.52;100496.13;4989911;28;99949;-73
2023/12/24 04:27:02;;;;;;;1.38;0.70;;;;;;;13.84;60.22;100500.53;4964365;28;97212;-73
2023/12/24 04:29:30;;;;;;;0.60;0.52;;;;;;;13.84;60.45;100497.84;4965507;28;96912;-73
2023/12/24 04:31:57;;;;;;;1.27;0.65;;;;;;;13.85;60.23;100494.16;4963468;28;100014;-73
2023/12/24 04:34:24;;;;;;;0.68;0.55;;;;;;;13.87;60.41;100500.28;4994841;28;98377;-73
2023/12/24 04:36:51;;;;;;;0.70;0.50;;;;;;;13.90;60.40;100486.50;4963546;28;97189;-72
2023/12/24 04:39:18;;;;;;;1.98;1.15;;;;;;;13.90;60.44;100483.78;4965981;28;97113;-72
2023/12/24 04:41:45;;;;;;;0.80;0.60;;;;;;;13.91;60.81;100489.06;4978158;28;100067;-74
2023/12/24 04:44:15;;;;;;;0.80;0.60;;;;;;;13.92;60.51;100488.06;4962151;28;97535;-73
2023/12/24 04:46:43;;;;;;;0.77;0.60;;;;;;;13.93;60.55;100478.97;4954079;28;97783;-73
2023/12/24 04:49:13;;;;;;;0.60;0.60;;;;;;;13.95;60.67;100482.38;4964730;28;97723;-72
2023/12/24 04:51:41;;;;;;;0.70;0.70;;;;;;;13.96;60.85;100473.28;4962643;28;98262;-76
2023/12/24 04:54:08;;;;;;;0.90;0.60;;;;;;;13.99;60.39;100470.31;4973784;28;100290;-73
2023/12/24 04:56:35;;;;;;;1.50;0.70;;;;;;;14.00;60.69;100472.00;4974387;28;97138;-73
2023/12/24 04:59:01;;;;;;;0.80;0.70;;;;;;;14.02;60.75;100471.88;4961834;28;97447;-73
2023/12/24 05:01:29;;;;;;;0.98;0.80;;;;;;;14.03;60.67;100460.09;4958894;28;98124;-73
2023/12/24 05:03:57;;;;;;;1.25;0.65;;;;;;;14.03;60.69;100456.53;4963680;28;98433;-74
2023/12/24 05:06:27;;;;;;;0.70;0.52;;;;;;;14.04;61.10;100459.09;4964573;28;96959;-73
2023/12/24 05:08:54;;;;;;;1.25;1.00;;;;;;;14.07;60.86;100452.56;4977564;28;97041;-73
2023/12/24 05:11:20;;;;;;;2.35;0.73;;;;;;;14.08;60.99;100456.97;4965094;28;99080;-74
2023/12/24 05:13:47;;;;;;;0.95;0.60;;;;;;;14.09;61.30;100458.66;4972026;28;99965;-74
2023/12/24 05:16:14;;;;;;;1.55;0.60;;;;;;;14.10;61.15;100452.28;4976648;28;98322;-74
2023/12/24 05:18:41;;;;;;;1.45;0.73;;;;;;;14.11;60.86;100452.13;4948912;28;98296;-73
2023/12/24 05:21:07;;;;;;;0.95;0.68;;;;;;;14.14;61.36;100464.53;4962777;28;99913;-74
2023/12/24 05:23:34;;;;;;;1.95;0.90;;;;;;;14.14;61.23;100465.38;4946888;28;98890;-72
2023/12/24 05:26:01;;;;;;;2.42;0.90;;;;;;;14.16;61.42;100454.44;4963195;28;97141;-72
2023/12/24 05:28:28;;;;;;;2.97;0.98;;;;;;;14.18;61.21;100452.44;4964787;28;96855;-73
2023/12/24 05:30:54;;;;;;;5.70;1.38;;;;;;;14.19;61.19;100438.81;4967350;28;98150;-73
2023/12/24 05:33:21;;;;;;;3.63;1.17;;;;;;;14.20;61.55;100432.41;4960506;28;98183;-72
2023/12/24 05:35:49;;;;;;;1.83;0.60;;;;;;;14.22;61.53;100443.06;4976456;28;96861;-75
2023/12/24 05:38:16;;;;;;;2.60;1.45;;;;;;;14.23;61.57;100442.94;4961834;28;96884;-73
2023/12/24 05:40:43;;;;;;;3.17;0.80;;;;;;;14.25;61.40;100443.63;4962406;28;97626;-72
2023/12/24 05:43:10;;;;;;;2.15;0.95;;;;;;;14.27;61.77;100440.78;4961960;28;97672;-73
2023/12/24 05:45:37;;;;;;;1.88;0.70;;;;;;;14.27;61.74;100436.25;4963796;28;97042;-73
2023/12/24 05:48:04;;;;;;;2.80;0.80;;;;;;;14.29;61.69;100436.94;4964811;28;97673;-74
2023/12/24 05:50:31;;;;;;;4.38;1.40;;;;;;;14.30;61.68;100444.06;4974045;28;97557;-73
2023/12/24 05:52:57;;;;;;;4.70;0.90;;;;;;;14.32;61.40;100435.81;4947041;28;99865;-74
2023/12/24 05:55:24;;;;;;;2.45;1.00;;;;;;;14.34;61.71;100431.13;4973102;28;97104;-74
2023/12/24 05:57:51;;;;;;;3.53;1.13;;;;;;;14.36;61.91;100433.69;4960300;28;97650;-74
2023/12/24 06:00:18;;;;;;;2.75;1.10;;;;;;;14.37;61.67;100429.97;4961591;28;100349;-74
2023/12/24 06:02:44;;;;;;;4.10;0.90;;;;;;;14.37;61.74;100432.69;4963921;28;98489;-74
2023/12/24 06:05:12;;;;;;;2.78;0.93;;;;;;;14.37;61.41;100427.28;4961087;28;96896;-73
2023/12/24 06:07:38;;;;;;;4.03;1.20;;;;;;;14.38;61.89;100434.38;4964492;28;97213;-73
2023/12/24 06:10:06;;;;;;;4.95;1.00;;;;;;;14.39;61.73;100420.75;4964361;28;98276;-74
2023/12/24 06:12:32;;;;;;;4.43;1.20;;;;;;;14.39;61.88;100420.75;4963451;28;97578;-74
2023/12/24 06:14:59;;;;;;;3.88;1.30;;;;;;;14.41;62.03;100434.09;4962480;28;96949;-73
2023/12/24 06:17:26;;;;;;;2.70;0.98;;;;;;;14.42;61.78;100412.38;4974112;28;97213;-73
2023/12/24 06:19:52;;;;;;;3.75;1.00;;;;;;;14.41;61.98;100407.94;4963467;28;97510;-73
2023/12/24 06:22:19;;;;;;;4.45;1.30;;;;;;;14.42;62.09;100406.97;4961223;28;98709;-73
2023/12/24 06:24:46;;;;;;;3.25;1.05;;;;;;;14.45;61.96;100416.63;4961296;28;96927;-73
2023/12/24 06:27:12;;;;;;;3.90;1.42;;;;;;;14.47;62.05;100418.19;4961717;28;97554;-73
2023/12/24 06:29:39;;;;;;;3.58;1.60;;;;;;;14.47;62.12;100411.94;4962145;28;97971;-73
2023/12/24 06:32:06;;;;;;;4.97;1.55;;;;;;;14.47;61.87;100410.09;4969259;28;99806;-73
2023/12/24 06:34:32;;;;;;;5.22;1.67;;;;;;;14.49;62.22;100418.91;4961028;28;97095;-73
2023/12/24 06:36:59;;;;;;;5.40;1.20;;;;;;;14.50;62.09;100417.06;4996284;28;96903;-73
2023/12/24 06:39:26;;;;;;;2.47;1.20;;;;;;;14.49;62.01;100416.22;4961756;28;98049;-73
2023/12/24 06:41:54;;;;;;;4.25;1.08;;;;;;;14.51;62.32;100422.31;4962051;28;97451;-73
2023/12/24 06:44:22;;;;;;;2.55;1.00;;;;;;;14.50;62.16;100414.34;4989884;28;98114;-72
2023/12/24 06:46:48;;;;;;;2.47;0.90;;;;;;;14.52;62.40;100420.47;4995582;28;97029;-73
2023/12/24 06:49:15;;;;;;;4.20;1.20;;;;;;;14.53;62.32;100416.78;4961961;28;98148;-73
2023/12/24 06:51:42;;;;;;;5.57;1.10;;;;;;;14.54;62.11;100421.19;4963960;28;98224;-73
2023/12/24 06:54:08;;;;;;;3.83;1.17;;;;;;;14.54;62.29;100413.06;4963926;28;96741;-73
2023/12/24 06:56:35;;;;;;;3.58;1.38;;;;;;;14.54;62.18;100422.03;4966749;28;97373;-73
2023/12/24 06:59:02;;;;;;;6.03;1.23;;;;;;;14.56;62.17;100421.88;4971411;28;97939;-73
2023/12/24 07:01:30;;;;;;;3.88;1.30;;;;;;;14.56;62.38;100420.03;4961605;28;97958;-73
2023/12/24 07:03:57;;;;;;;2.20;1.23;;;;;;;14.56;62.16;100414.63;4963802;28;97216;-73
2023/12/24 07:06:24;;;;;;;4.15;1.10;;;;;;;14.57;62.59;100405.53;4962975;28;97358;-73
2023/12/24 07:08:51;;;;;;;7.03;1.55;;;;;;;14.57;62.21;100421.75;4990516;28;97609;-73
2023/12/24 07:11:18;;;;;;;4.30;1.67;;;;;;;14.57;62.43;100410.06;4962586;28;97510;-73
2023/12/24 07:13:45;;;;;;;3.47;1.17;;;;;;;14.57;62.50;100415.47;4964264;28;96998;-73
2023/12/24 07:16:13;;;;;;;2.38;1.30;;;;;;;14.57;62.52;100427.13;4963251;28;96955;-73
2023/12/24 07:18:40;;;;;;;2.88;1.10;;;;;;;14.58;62.23;100419.88;4962125;28;99932;-74
2023/12/24 07:21:07;;;;;;;3.33;1.58;;;;;;;14.58;62.52;100428.84;4973655;28;99019;-74
2023/12/24 07:23:33;;;;;;;5.05;1.73;;;;;;;14.59;62.64;100419.75;4962691;28;97124;-73
2023/12/24 07:26:00;;;;;;;3.65;1.40;;;;;;;14.60;62.26;100424.16;4974544;28;97574;-73
2023/12/24 07:28:28;;;;;;;5.82;1.23;;;;;;;14.62;62.27;100402.38;4994017;28;100064;-73
2023/12/24 07:30:55;;;;;;;4.55;1.42;;;;;;;14.62;62.30;100415.91;4961139;28;98869;-73
2023/12/24 07:33:22;;;;;;;4.72;1.23;;;;;;;14.62;62.58;100405.09;4972742;28;98752;-74
2023/12/24 07:35:48;;;;;;;5.35;1.60;;;;;;;14.63;62.48;100404.09;4978260;28;97243;-73
2023/12/24 07:38:15;;;;;;;6.93;1.40;;;;;;;14.62;62.42;100407.78;4994564;28;97601;-73
2023/12/24 07:40:42;;;;;;;6.97;1.90;;;;;;;14.61;62.69;100415.03;4981166;28;98162;-74
2023/12/24 07:43:08;;;;;;;3.72;1.52;;;;;;;14.61;62.69;100403.38;4960710;28;97295;-74
2023/12/24 07:45:35;;;;;;;6.82;1.73;;;;;;;14.61;62.55;100401.53;4948264;28;97297;-73
2023/12/24 07:48:02;;;;;;;5.00;1.38;;;;;;;14.63;62.95;100398.69;4965361;28;97952;-73
2023/12/24 07:50:29;;;;;;;5.93;1.65;;;;;;;14.62;62.59;100399.69;4966002;28;98061;-73
2023/12/24 07:52:56;;;;;;;8.30;1.90;;;;;;;14.63;62.81;100388.72;4966545;28;96980;-73
2023/12/24 07:55:23;;;;;;;4.40;1.67;;;;;;;14.65;62.69;100412.91;4963839;28;97218;-73
2023/12/24 07:57:49;;;;;;;5.65;1.77;;;;;;;14.66;62.79;100401.09;4965649;28;100406;-73
2023/12/24 08:00:16;;;;;;;5.50;1.27;;;;;;;14.66;62.77;100397.53;4979660;28;99972;-72
2023/12/24 08:02:45;;;;;;;6.47;1.83;;;;;;;14.67;62.98;100405.50;4963844;28;96834;-73
2023/12/24 08:05:12;;;;;;;8.05;1.77;;;;;;;14.68;62.64;100387.44;4958471;28;97157;-73
2023/12/24 08:07:39;;;;;;;5.95;1.60;;;;;;;14.69;62.67;100402.66;4965243;28;97715;-73
2023/12/24 08:10:07;;;;;;;6.38;1.48;;;;;;;14.70;62.97;100399.81;4962342;28;99931;-73
2023/12/24 08:12:35;;;;;;;6.35;1.80;;;;;;;14.70;62.83;100404.34;4961328;28;97168;-73
2023/12/24 08:15:02;;;;;;;5.63;1.80;;;;;;;14.72;62.79;100394.25;4966488;28;97386;-72
2023/12/24 08:17:28;;;;;;;5.05;1.33;;;;;;;14.71;63.13;100397.94;4950254;28;100473;-72
2023/12/24 08:19:55;;;;;;;6.35;1.77;;;;;;;14.71;62.96;100392.53;4966480;28;98059;-74
2023/12/24 08:22:23;;;;;;;4.78;1.42;;;;;;;14.71;63.06;100401.50;4958393;28;97765;-74
2023/12/24 08:24:50;;;;;;;5.65;1.27;;;;;;;14.73;63.16;100401.34;4967115;28;97201;-74
2023/12/24 08:27:16;;;;;;;2.55;1.33;;;;;;;14.72;63.27;100394.25;4996826;28;98083;-74
2023/12/24 08:29:43;;;;;;;5.22;1.10;;;;;;;14.74;63.25;100382.28;4994048;28;97233;-75
2023/12/24 08:32:10;;;;;;;5.60;1.38;;;;;;;14.76;63.26;100385.69;4960482;28;97508;-74
2023/12/24 08:34:37;;;;;;;3.75;1.02;;;;;;;14.78;63.37;100397.22;4995595;28;97404;-75
2023/12/24 08:37:04;;;;;;;2.83;1.17;;;;;;;14.80;63.28;100405.19;4980358;28;99728;-75
2023/12/24 08:39:30;;;;;;;3.45;0.90;;;;;;;14.81;63.36;100398.78;4974665;28;99810;-74
2023/12/24 08:41:57;;;;;;;1.25;0.60;;;;;;;14.83;63.13;100399.47;4997534;28;97107;-72
2023/12/24 08:44:27;;;;;;;1.98;0.75;;;;;;;14.85;63.11;100406.44;4963025;28;99592;-72
2023/12/24 08:46:53;;;;;;;1.10;0.60;;;;;;;14.87;63.24;100387.41;4979157;28;100389;-73
2023/12/24 08:49:24;;;;;;;2.15;0.80;;;;;;;14.87;63.15;100387.41;4971014;28;98302;-73
2023/12/24 08:51:51;;;;;;;2.10;0.80;;;;;;;14.88;63.21;100392.66;4962918;28;97217;-72
2023/12/24 08:54:18;;;;;;;1.30;0.57;;;;;;;14.88;63.43;100403.47;4965616;28;97250;-72
2023/12/24 08:56:44;;;;;;;4.25;1.10;;;;;;;14.88;63.69;100392.66;4965633;28;97584;-73
2023/12/24 08:59:14;;;;;;;1.67;0.60;;;;;;;14.89;63.34;100396.22;4964893;28;97839;-73
2023/12/24 09:01:41;;;;;;;5.70;1.00;;;;;;;14.90;63.53;100403.34;4964047;28;97210;-72
2023/12/24 09:04:08;;;;;;;3.88;1.27;;;;;;;14.91;63.69;100402.34;4995319;28;97624;-73
2023/12/24 09:06:37;;;;;;;2.38;1.10;;;;;;;14.92;63.56;100387.81;4979693;28;100342;-73
2023/12/24 09:09:04;;;;;;;2.45;1.05;;;;;;;14.94;63.46;100397.47;4964787;28;97959;-73
2023/12/24 09:11:30;;;;;;;2.92;1.00;;;;;;;14.95;63.53;100398.34;4964817;28;97365;-73
2023/12/24 09:13:57;;;;;;;2.95;1.25;;;;;;;14.97;63.78;100385.50;4997097;28;96856;-73
2023/12/24 09:16:24;;;;;;;2.65;1.30;;;;;;;14.98;63.51;100389.91;4964244;28;97609;-73
2023/12/24 09:18:50;;;;;;;3.10;1.10;;;;;;;15.00;63.81;100379.81;4964201;28;97667;-73
2023/12/24 09:21:17;;;;;;;3.75;1.27;;;;;;;15.01;63.45;100380.66;4963954;28;97114;-72
2023/12/24 09:23:43;;;;;;;3.22;1.02;;;;;;;15.02;63.45;100388.63;4965525;28;97277;-72
2023/12/24 09:26:10;;;;;;;5.55;1.50;;;;;;;15.04;63.71;100394.75;4958947;28;98380;-73
2023/12/24 09:28:37;;;;;;;3.20;1.33;;;;;;;15.06;63.79;100394.59;4962639;28;98049;-73
2023/12/24 09:31:03;;;;;;;6.80;1.73;;;;;;;15.07;63.68;100399.00;4956627;28;97131;-74
2023/12/24 09:33:32;;;;;;;5.43;1.83;;;;;;;15.08;63.38;100371.81;4964109;28;96824;-72
2023/12/24 09:35:59;;;;;;;5.32;1.75;;;;;;;15.10;63.33;100377.91;4958435;28;97685;-73
2023/12/24 09:38:25;;;;;;;5.25;2.00;;;;;;;15.11;63.38;100363.38;4963413;28;97723;-73
2023/12/24 09:40:52;;;;;;;5.88;1.90;;;;;;;15.13;63.64;100355.13;4964831;28;97330;-72
2023/12/24 09:43:19;;;;;;;8.70;2.40;;;;;;;15.12;63.70;100361.53;4959606;28;98039;-72
2023/12/24 09:45:46;;;;;;;6.70;2.00;;;;;;;15.12;63.99;100359.69;4962957;28;97613;-73
2023/12/24 09:48:13;;;;;;;8.43;2.78;;;;;;;15.13;63.42;100374.06;4961818;28;97621;-73
2023/12/24 09:50:40;;;;;;;13.45;3.15;;;;;;;15.14;63.84;100373.06;4966300;28;96926;-74
2023/12/24 09:53:12;;;;;;;13.40;3.17;;;;;;;15.13;63.74;100358.69;4964805;28;98175;-73
2023/12/24 09:55:39;;;;;;;16.10;3.80;;;;;;;15.15;63.99;100351.28;4961750;28;100173;-74
2023/12/24 09:58:06;;;;;;;12.70;3.67;;;;;;;15.16;63.91;100352.97;4963857;28;98354;-74
2023/12/24 10:00:32;;;;;;;17.02;4.07;;;;;;;15.17;64.01;100349.25;4994245;28;96955;-74
2023/12/24 10:02:59;;;;;;;17.58;4.28;;;;;;;15.18;63.94;100361.78;4961255;28;97528;-74
2023/12/24 10:05:26;;;;;;;17.00;3.78;;;;;;;15.20;63.84;100388.69;4959819;28;97788;-74
2023/12/24 10:07:53;;;;;;;15.48;3.67;;;;;;;15.20;64.04;100373.31;4963322;28;97602;-74
2023/12/24 10:10:32;;;;;;;21.30;4.78;;;;;;;15.22;63.95;100390.25;4959591;28;97538;-73
2023/12/24 10:13:05;;;;;;;24.70;5.05;;;;;;;15.25;64.08;100387.22;4964855;28;97513;-74
2023/12/24 10:15:32;;;;;;;26.95;5.82;;;;;;;15.31;64.03;100395.75;4962089;28;98165;-74
2023/12/24 10:18:19;;;;;;;20.77;6.03;;;;;;;15.32;64.01;100403.72;4961764;28;100010;-75
2023/12/24 10:20:47;;;;;;;25.92;6.45;;;;;;;15.38;63.93;100394.16;4964897;28;97294;-74
2023/12/24 10:23:14;;;;;;;22.15;4.32;;;;;;;15.40;63.97;100395.69;4964757;28;97333;-73
2023/12/24 10:25:41;;;;;;;13.65;5.07;;;;;;;15.43;63.83;100408.06;4962300;28;99739;-74
2023/12/24 10:28:08;;;;;;;21.70;5.28;;;;;;;15.46;64.11;100402.34;4960627;28;98423;-73
2023/12/24 10:30:35;;;;;;;24.83;5.57;;;;;;;15.48;64.12;100392.22;4962993;28;96970;-73
2023/12/24 10:33:09;;;;;;;28.25;6.05;;;;;;;15.48;64.25;100370.59;4961755;28;96941;-74
2023/12/24 10:35:37;;;;;;;18.25;5.75;;;;;;;15.51;63.82;100375.69;4995721;28;98651;-74
2023/12/24 10:38:15;;;;;;;22.73;5.00;;;;;;;15.52;63.99;100382.81;4962437;28;98831;-73
2023/12/24 10:40:42;;;;;;;21.20;5.05;;;;;;;15.56;63.77;100378.78;4964160;28;97623;-74
2023/12/24 10:43:09;;;;;;;17.67;4.93;;;;;;;15.60;63.86;100369.41;4958775;28;97362;-73
2023/12/24 10:45:35;;;;;;;21.67;4.47;;;;;;;15.61;63.86;100362.16;4970147;28;98641;-72
2023/12/24 10:48:03;;;;;;;22.75;4.50;;;;;;;15.63;63.68;100362.84;4957878;28;97623;-73
2023/12/24 10:50:30;;;;;;;18.20;5.18;;;;;;;15.66;63.79;100349.88;4963824;28;96831;-73
2023/12/24 10:52:56;;;;;;;17.58;5.78;;;;;;;15.69;63.76;100370.38;4965092;28;97149;-73
2023/12/24 10:55:24;;;;;;;18.95;4.38;;;;;;;15.70;63.78;100353.13;4960280;28;98253;-73
2023/12/24 10:58:02;;;;;;;15.70;5.10;;;;;;;15.72;63.67;100351.09;4995123;28;100836;-74
2023/12/24 11:00:28;;;;;;;17.33;4.90;;;;;;;15.73;63.76;100334.72;4957458;28;97093;-72
2023/12/24 11:02:55;;;;;;;13.52;3.67;;;;;;;15.75;63.89;100348.09;4964353;28;97093;-73
2023/12/24 11:05:47;;;;;;;16.75;4.65;;;;;;;15.73;63.35;100356.38;4962127;28;97864;-72
2023/12/24 11:08:18;;;;;;;17.65;4.10;;;;;;;15.76;63.41;100356.06;4976710;28;97884;-73
2023/12/24 11:10:52;;;;;;;19.25;4.97;;;;;;;15.77;63.46;100362.31;4963514;28;97039;-73
2023/12/24 11:13:31;;;;;;;17.73;4.53;;;;;;;15.77;63.46;100337.97;4961465;28;98316;-73
2023/12/24 11:16:00;;;;;;;12.07;3.38;;;;;;;15.77;63.50;100349.63;4961260;28;97621;-73
2023/12/24 11:18:38;;;;;;;16.73;3.30;;;;;;;15.77;63.14;100335.25;4972091;28;97836;-72
2023/12/24 11:21:05;;;;;;;11.07;2.47;;;;;;;15.77;63.51;100325.28;4962194;28;97321;-73
2023/12/24 11:23:33;;;;;;;10.57;2.92;;;;;;;15.77;63.50;100330.69;4961228;28;97078;-73
2023/12/24 11:26:00;;;;;;;6.72;2.17;;;;;;;15.77;63.33;100319.00;4963058;28;97944;-73